Aérodrome :
LOGIN :

S'inscrire | Disclaimer

   EN    FR    IT 

 










Légende :    VFR   VFR Marginal   IFR   IFR Intensif   IFR Très Intensif
Visi : 
Plafond : 
>= 8 km
>= 3000ft
5 à 8 km
1000 à 3000 ft
1500m à 5 km
500 à 1000 ft
800 à 1500m
200 à 500 ft
< 800m
< 200 ft
Symboles :   Orages  Brouillard  Fortes neiges  Fortes précipitations  Vent > 20 kt
SIGMETs :   Divers  Orages  Givrage  Turbulence  Onde Orograph.  Cendres Volcan.







- Altitude de l'aérodrome : 392 ft
- Code IATA : CDG
- Voir les cartes d'approche


LFPG - Paris-Aeroport Charles De Gaulle

DERNIER METAR :
  • 182330Z 25004KT 9999 FEW007 BKN035 BKN067 18/16 Q1015 NOSIG

METARs EXPIRÉS :
  • 182300Z 23004KT 9999 FEW005 BKN070 BKN120 18/17 Q1015 NOSIG
  • 182230Z 23005KT 9999 FEW005 BKN066 BKN120 18/17 Q1015 NOSIG
  • 182200Z 24005KT 9999 FEW007 BKN070 18/17 Q1015 NOSIG
  • 182130Z 24004KT 9999 FEW008 BKN029 18/17 Q1015 RERA NOSIG
  • 182100Z 30008KT 3500 -RA BR FEW003 BKN004 BKN008 18/17 Q1015 RERA BECMG 9999 NSW BKN020

TAF TAF LFPG
Valide du 19 à 00h jusqu'au 20 à 06h UTC


182300Z 1900/2006 25005KT 9999 FEW007 BKN035 BKN070 TX28/1915Z TN16/1904Z
BECMG 1900/1903 4000 BR
TEMPO 1903/1906 BKN005
BECMG 1906/1909 9999 NSW BKN010
BECMG 1909/1912 NSC
ATIS : +33 1 48 62 10 92
Pas de NOTAMs connus pour ce terrain.



MET'MAP, la Météo Aéronautique d'un coup d'oeil ! - Copyright ORBIFLY Décembre 2007 - Disclaimer

ORBIFLY MET'MAP TEAM :

Programmation & Développement : Alexandra Zaïnal
Conception & Développement : Baudouin d'Aumeries
Co-Programmation & Développement : Marc-Olivier Méhu
Soutien technique & logistique : Manuel Goepfert

Contact : metmap@orbifly.com




SOURCES & CREDITS :

   NOAA